ESPA/LLA METAR and TAF weather

Enter ICAO airport designator
Station Type Date Time Source
ESPA METAR 2021/05/13 19:20 UTC NOAA

ESPA 131920Z 01008KT CAVOK 12/08 Q1011


Station Type Date Time Source
ESPA Decoded METAR 2021/05/13 19:20 UTC NOAA

Lulea / Kallax, Sweden (ESPA) 65-33N 022-08E 34M
May 13, 2021 - 03:20 PM EDT / 2021.05.13 1920 UTC
Wind: from the N (010 degrees) at 9 MPH (8 KT):0
Visibility: greater than 7 mile(s):0
Temperature: 53 F (12 C)
Dew Point: 46 F (8 C)
Relative Humidity: 76%
Pressure (altimeter): 29.85 in. Hg (1011 hPa)
ob: ESPA 131920Z 01008KT CAVOK 12/08 Q1011
cycle: 19

Station Type Date Time Source
ESPA TAF 2019/02/04 06:27 UTC NOAA

TAF TAF ESPA 040820Z 0406/0418 01010KT 2000 SN VV020
TEMPO 0409/0414 1000 +SN DRSN VV009
BECMG 0414/0416 32010KT 5000 -SN VV030
RMK MIL

Example: see airport list